地図

経路データ

SID SEASON NUMBER BASIN SUBBASIN NAME ISO_TIME NATURE LAT LON WMO_WIND WMO_PRES WMO_AGENCY TRACK_TYPE DIST2LAND LANDFALL IFLAG USA_AGENCY USA_ATCF_ID USA_LAT USA_LON USA_RECORD USA_STATUS USA_WIND USA_PRES USA_SSHS USA_R34_NE USA_R34_SE USA_R34_SW USA_R34_NW USA_R50_NE USA_R50_SE USA_R50_SW USA_R50_NW USA_R64_NE USA_R64_SE USA_R64_SW USA_R64_NW USA_POCI USA_ROCI USA_RMW USA_EYE TOKYO_LAT TOKYO_LON TOKYO_GRADE TOKYO_WIND TOKYO_PRES TOKYO_R50_DIR TOKYO_R50_LONG TOKYO_R50_SHORT TOKYO_R30_DIR TOKYO_R30_LONG TOKYO_R30_SHORT TOKYO_LAND CMA_LAT CMA_LON CMA_CAT CMA_WIND CMA_PRES HKO_LAT HKO_LON HKO_CAT HKO_WIND HKO_PRES NEWDELHI_LAT NEWDELHI_LON NEWDELHI_GRADE NEWDELHI_WIND NEWDELHI_PRES NEWDELHI_CI NEWDELHI_DP NEWDELHI_POCI REUNION_LAT REUNION_LON REUNION_TYPE REUNION_WIND REUNION_PRES REUNION_TNUM REUNION_CI REUNION_RMW REUNION_R34_NE REUNION_R34_SE REUNION_R34_SW REUNION_R34_NW REUNION_R50_NE REUNION_R50_SE REUNION_R50_SW REUNION_R50_NW REUNION_R64_NE REUNION_R64_SE REUNION_R64_SW REUNION_R64_NW BOM_LAT BOM_LON BOM_TYPE BOM_WIND BOM_PRES BOM_TNUM BOM_CI BOM_RMW BOM_R34_NE BOM_R34_SE BOM_R34_SW BOM_R34_NW BOM_R50_NE BOM_R50_SE BOM_R50_SW BOM_R50_NW BOM_R64_NE BOM_R64_SE BOM_R64_SW BOM_R64_NW BOM_ROCI BOM_POCI BOM_EYE BOM_POS_METHOD BOM_PRES_METHOD NADI_LAT NADI_LON NADI_CAT NADI_WIND NADI_PRES WELLINGTON_LAT WELLINGTON_LON WELLINGTON_WIND WELLINGTON_PRES DS824_LAT DS824_LON DS824_STAGE DS824_WIND DS824_PRES TD9636_LAT TD9636_LON TD9636_STAGE TD9636_WIND TD9636_PRES TD9635_LAT TD9635_LON TD9635_WIND TD9635_PRES TD9635_ROCI NEUMANN_LAT NEUMANN_LON NEUMANN_CLASS NEUMANN_WIND NEUMANN_PRES MLC_LAT MLC_LON MLC_CLASS MLC_WIND MLC_PRES USA_GUST BOM_GUST BOM_GUST_PER REUNION_GUST REUNION_GUST_PER USA_SEAHGT USA_SEARAD_NE USA_SEARAD_SE USA_SEARAD_SW USA_SEARAD_NW STORM_SPEED STORM_DIR
1947334N10129 1947 96 WP MM NOT_NAMED 1947-11-29 12:00:00 NR 9.90000 129.000 main 317 211 __________O___ -1 9.90000 129.000 2 31 294
1947334N10129 1947 96 WP MM NOT_NAMED 1947-11-29 15:00:00 NR 10.5110 127.577 main 204 54 __________P___ -1 10.5110 127.577 2 30 293
1947334N10129 1947 96 WP MM NOT_NAMED 1947-11-29 18:00:00 NR 11.0750 126.209 main 45 0 __________P___ -1 11.0750 126.209 2 28 292
1947334N10129 1947 96 WP MM NOT_NAMED 1947-11-29 21:00:00 NR 11.5511 124.962 main 0 0 __________P___ -1 11.5511 124.962 2 24 290
1947334N10129 1947 96 WP MM NOT_NAMED 1947-11-30 00:00:00 NR 11.9000 123.900 main 0 0 __________O___ -1 11.9000 123.900 2 19 287
1947334N10129 1947 96 WP MM NOT_NAMED 1947-11-30 03:00:00 NR 12.1046 123.070 main 15 15 __________P___ -1 12.1046 123.070 2 15 283
1947334N10129 1947 96 WP MM NOT_NAMED 1947-11-30 06:00:00 NR 12.2317 122.453 main 55 48 __________P___ -1 12.2317 122.453 2 11 284
1947334N10129 1947 96 WP MM NOT_NAMED 1947-11-30 09:00:00 NR 12.3681 122.009 main 48 10 __________P___ -1 12.3681 122.009 2 8 297
1947334N10129 1947 96 WP MM NOT_NAMED 1947-11-30 12:00:00 NR 12.6000 121.700 main 10 0 __________O___ -1 12.6000 121.700 2 9 321
1947334N10129 1947 96 WP MM NOT_NAMED 1947-11-30 15:00:00 NR 13.0375 121.448 main 0 0 __________P___ -1 13.0375 121.448 2 11 339
1947334N10129 1947 96 WP MM NOT_NAMED 1947-11-30 18:00:00 NR 13.5793 121.314 main 0 0 __________P___ -1 13.5793 121.314 2 12 350
1947334N10129 1947 96 WP MM NOT_NAMED 1947-11-30 21:00:00 NR 14.1815 121.248 main 0 0 __________P___ -1 14.1815 121.248 2 12 355
1947334N10129 1947 96 WP MM NOT_NAMED 1947-12-01 00:00:00 NR 14.8000 121.200 main 0 0 __________O___ -1 14.8000 121.200 7 12 352
1947334N10129 1947 96 WP MM NOT_NAMED 1947-12-01 03:00:00 NR 15.3719 121.077 main 0 0 __________P___ -1 15.3719 121.077 7 12 349
1947334N10129 1947 96 WP MM NOT_NAMED 1947-12-01 06:00:00 NR 15.9500 120.963 main 0 0 __________P___ -1 15.9500 120.963 7 12 350
1947334N10129 1947 96 WP MM NOT_NAMED 1947-12-01 09:00:00 NR 16.5281 120.867 main 0 0 __________P___ -1 16.5281 120.867 7 12 352
1947334N10129 1947 96 WP MM NOT_NAMED 1947-12-01 12:00:00 NR 17.1000 120.800 main 0 0 __________O___ -1 17.1000 120.800 7 12 352
1947334N10129 1947 96 WP MM NOT_NAMED 1947-12-01 15:00:00 NR 17.7297 120.687 main 0 0 __________P___ -1 17.7297 120.687 7 13 352
1947334N10129 1947 96 WP MM NOT_NAMED 1947-12-01 18:00:00 NR 18.3414 120.613 main 0 0 __________P___ -1 18.3414 120.613 7 12 357
1947334N10129 1947 96 WP MM NOT_NAMED 1947-12-01 21:00:00 NR 18.8824 120.633 main 39 39 __________P___ -1 18.8824 120.633 7 10 10
1947334N10129 1947 96 WP MM NOT_NAMED 1947-12-02 00:00:00 NR 19.3000 120.800 main 78 78 __________O___ -1 19.3000 120.800 4 8 38
1947334N10129 1947 96 WP MM NOT_NAMED 1947-12-02 03:00:00 NR 19.5464 121.178 main 105 105 __________P___ -1 19.5464 121.178 4 9 67
1947334N10129 1947 96 WP MM NOT_NAMED 1947-12-02 06:00:00 NR 19.6662 121.700 main 137 137 __________P___ -1 19.6662 121.700 4 11 82
1947334N10129 1947 96 WP MM NOT_NAMED 1947-12-02 09:00:00 NR 19.7027 122.297 main 145 145 __________P___ -1 19.7027 122.297 4 11 88
1947334N10129 1947 96 WP MM NOT_NAMED 1947-12-02 12:00:00 NR 19.7000 122.900 main 158 158 __________O___ -1 19.7000 122.900 4 11 90
1947334N10129 1947 96 WP MM NOT_NAMED 1947-12-02 15:00:00 NR 19.6953 123.455 main 192 192 __________P___ -1 19.6953 123.455 4 10 90
1947334N10129 1947 96 WP MM NOT_NAMED 1947-12-02 18:00:00 NR 19.6948 123.962 main 230 230 __________P___ -1 19.6948 123.962 4 9 90
1947334N10129 1947 96 WP MM NOT_NAMED 1947-12-02 21:00:00 NR 19.6970 124.439 main 264 264 __________P___ -1 19.6970 124.439 4 9 90
1947334N10129 1947 96 WP MM NOT_NAMED 1947-12-03 00:00:00 NR 19.7000 124.900 main 309 __________O___ -1 19.7000 124.900 4 9 90

デジタル台風データ・検索

IBTrACS Databaseについて

本データベースは、米国NOAAが公開する1842年以降の世界の熱帯低気圧のベストトラックデータアーカイブInternational Best Track Archive for Climate Stewardship (IBTrACS)を、ウェブで閲覧しやすい形式に変換したものです。

最終更新日:2021-10-21